createdAt,value
2022-08-03T00:00:24.317Z,66.05
2022-08-03T00:01:22.647Z,66.04
2022-08-03T00:02:22.355Z,66.15
2022-08-03T00:03:22.811Z,66.41
2022-08-03T00:04:22.360Z,66.28
2022-08-03T00:05:22.420Z,66.33
2022-08-03T00:06:22.367Z,66.29
2022-08-03T00:07:22.287Z,66.54
2022-08-03T00:08:22.465Z,66.73
2022-08-03T00:09:22.305Z,66.60
2022-08-03T00:10:22.428Z,66.82
2022-08-03T00:11:22.393Z,66.11
2022-08-03T00:12:22.284Z,66.42
2022-08-03T00:13:22.357Z,67.06
2022-08-03T00:14:22.416Z,67.70
2022-08-03T00:15:22.342Z,68.41
2022-08-03T00:16:22.385Z,68.20
2022-08-03T00:17:22.307Z,67.75
2022-08-03T00:18:22.732Z,67.84
2022-08-03T00:19:22.321Z,67.80
2022-08-03T00:20:22.626Z,67.06
2022-08-03T00:21:22.351Z,66.78
2022-08-03T00:22:22.321Z,66.77
2022-08-03T00:23:22.352Z,66.46
2022-08-03T00:25:22.368Z,65.98
2022-08-03T00:26:22.885Z,66.12
2022-08-03T00:27:22.293Z,66.11
2022-08-03T00:28:22.381Z,66.15
2022-08-03T00:29:22.296Z,65.67
2022-08-03T00:30:22.477Z,65.56
2022-08-03T00:33:22.754Z,65.60
2022-08-03T00:34:32.644Z,65.57
2022-08-03T00:35:37.069Z,65.88
2022-08-03T00:36:22.419Z,65.83
2022-08-03T00:37:22.323Z,65.80
2022-08-03T00:38:22.327Z,66.18
2022-08-03T00:39:22.258Z,66.17
2022-08-03T00:40:22.755Z,66.30
2022-08-03T00:41:22.476Z,65.75
2022-08-03T00:42:22.313Z,66.10
2022-08-03T00:43:27.828Z,65.93
2022-08-03T00:45:25.154Z,65.75
2022-08-03T00:46:22.685Z,65.62
2022-08-03T00:47:22.601Z,66.00
2022-08-03T00:48:33.198Z,65.93
2022-08-03T00:49:22.945Z,66.17
2022-08-03T00:50:24.429Z,65.99
2022-08-03T00:51:23.661Z,65.77
2022-08-03T00:52:22.498Z,65.66
2022-08-03T00:53:22.614Z,65.97
2022-08-03T00:54:22.558Z,66.52
2022-08-03T00:55:23.268Z,66.71
2022-08-03T00:56:22.273Z,67.03
2022-08-03T00:57:22.439Z,67.39
2022-08-03T00:58:22.524Z,67.66
2022-08-03T01:01:22.439Z,68.38
2022-08-03T01:02:22.355Z,68.25
2022-08-03T01:03:22.352Z,68.28
2022-08-03T01:04:22.311Z,68.42
2022-08-03T01:05:23.159Z,68.29
2022-08-03T01:07:27.179Z,67.59
2022-08-03T01:08:31.663Z,67.18
2022-08-03T01:09:30.818Z,66.63
2022-08-03T01:10:26.195Z,66.00
2022-08-03T01:11:36.150Z,65.88
2022-08-03T01:12:31.301Z,65.90
2022-08-03T01:14:01.734Z,66.00
2022-08-03T01:14:31.047Z,65.82
2022-08-03T01:15:30.743Z,65.55
2022-08-03T01:16:36.881Z,65.41
2022-08-03T01:17:32.049Z,65.80
2022-08-03T01:18:26.556Z,65.23
2022-08-03T01:19:32.784Z,65.04
2022-08-03T01:20:24.405Z,64.92
2022-08-03T01:21:29.531Z,64.79
2022-08-03T01:22:39.003Z,64.98
2022-08-03T01:23:32.010Z,64.98
2022-08-03T01:24:40.906Z,64.66
2022-08-03T01:25:33.588Z,64.54
2022-08-03T01:27:33.795Z,64.40
2022-08-03T01:28:40.444Z,64.63
2022-08-03T01:29:40.412Z,64.78
2022-08-03T01:30:26.379Z,65.13
2022-08-03T01:31:29.206Z,65.37
2022-08-03T01:32:54.552Z,65.08
2022-08-03T01:33:32.559Z,64.88
2022-08-03T01:34:23.841Z,64.89
2022-08-03T01:35:28.629Z,64.72
2022-08-03T01:36:25.682Z,64.98
2022-08-03T01:37:28.374Z,65.11
2022-08-03T01:38:26.490Z,65.44
2022-08-03T01:39:23.974Z,65.36
2022-08-03T01:40:25.006Z,65.62
2022-08-03T01:41:27.439Z,65.19
2022-08-03T01:42:23.766Z,64.88
2022-08-03T01:44:27.356Z,64.84
2022-08-03T01:44:29.760Z,64.97
2022-08-03T01:45:23.315Z,64.43
2022-08-03T01:46:25.775Z,63.48
2022-08-03T01:47:24.989Z,62.90
2022-08-03T01:48:22.630Z,63.11
2022-08-03T01:49:22.771Z,63.38
2022-08-03T01:50:27.481Z,63.07
2022-08-03T01:51:23.875Z,63.19
2022-08-03T01:52:22.969Z,63.54
2022-08-03T01:53:23.788Z,63.57
2022-08-03T01:55:24.736Z,63.73
2022-08-03T01:56:25.247Z,63.88
2022-08-03T01:57:24.448Z,63.76
2022-08-03T01:58:25.238Z,63.61
2022-08-03T01:59:23.755Z,63.39
2022-08-03T02:00:23.572Z,63.38
2022-08-03T02:01:24.664Z,63.71
2022-08-03T02:02:33.706Z,64.04
2022-08-03T02:03:24.072Z,64.16
2022-08-03T02:04:24.740Z,64.18
2022-08-03T02:05:22.610Z,64.43
2022-08-03T02:07:01.491Z,64.79
2022-08-03T02:07:22.507Z,65.18
2022-08-03T02:08:24.759Z,65.52
2022-08-03T02:09:24.075Z,65.79
2022-08-03T02:10:35.613Z,65.96
2022-08-03T02:11:22.725Z,66.29
2022-08-03T02:12:26.382Z,66.48
2022-08-03T02:13:22.730Z,66.74
2022-08-03T02:14:24.178Z,67.00
2022-08-03T02:15:24.527Z,67.34
2022-08-03T02:16:24.750Z,67.65
2022-08-03T02:18:23.195Z,68.01
2022-08-03T02:19:23.819Z,68.05
2022-08-03T02:20:22.699Z,67.93
2022-08-03T02:21:56.510Z,68.08
2022-08-03T02:22:23.961Z,67.64
2022-08-03T02:23:22.285Z,67.45
2022-08-03T02:24:22.294Z,67.00
2022-08-03T02:25:22.458Z,66.52
2022-08-03T02:26:24.886Z,65.78
2022-08-03T02:27:26.274Z,65.45
2022-08-03T02:28:27.186Z,65.34
2022-08-03T02:29:40.379Z,65.36
2022-08-03T02:30:24.261Z,64.94
2022-08-03T02:31:27.641Z,64.95
2022-08-03T02:33:29.018Z,64.68
2022-08-03T02:34:27.441Z,64.78
2022-08-03T02:36:26.661Z,64.81
2022-08-03T02:38:28.795Z,64.73
2022-08-03T02:39:25.520Z,64.62
2022-08-03T02:40:24.766Z,64.44
2022-08-03T02:42:24.479Z,64.82
2022-08-03T02:43:24.683Z,64.88
2022-08-03T02:44:26.825Z,64.89
2022-08-03T02:45:24.887Z,64.93
2022-08-03T02:46:26.242Z,64.88
2022-08-03T02:47:23.065Z,64.78
2022-08-03T02:48:27.653Z,64.68
2022-08-03T02:49:40.899Z,64.82
2022-08-03T02:50:24.286Z,64.41
2022-08-03T02:51:23.124Z,64.29
2022-08-03T02:52:24.688Z,64.18
2022-08-03T02:53:23.019Z,64.11
2022-08-03T02:54:24.961Z,63.83
2022-08-03T02:55:23.260Z,63.73
2022-08-03T02:56:24.915Z,63.68
2022-08-03T02:57:23.961Z,63.48
2022-08-03T02:58:24.135Z,63.49
2022-08-03T03:00:27.814Z,63.62
2022-08-03T03:01:23.826Z,63.72
2022-08-03T03:02:22.702Z,63.90
2022-08-03T03:03:22.927Z,63.58
2022-08-03T03:04:24.983Z,63.45
2022-08-03T03:05:53.402Z,63.32
2022-08-03T03:06:23.215Z,63.32
2022-08-03T03:07:22.334Z,63.36
2022-08-03T03:08:26.789Z,63.43
2022-08-03T03:09:22.964Z,63.46
2022-08-03T03:10:23.395Z,63.58
2022-08-03T03:11:23.623Z,63.66
2022-08-03T03:12:23.158Z,63.57
2022-08-03T03:13:22.896Z,63.60
2022-08-03T03:14:33.706Z,63.63
2022-08-03T03:15:23.231Z,63.94
2022-08-03T03:16:23.100Z,64.13
2022-08-03T03:17:23.193Z,64.39
2022-08-03T03:18:23.203Z,64.53
2022-08-03T03:19:22.878Z,64.67
2022-08-03T03:20:29.135Z,64.91
2022-08-03T03:21:24.001Z,65.11
2022-08-03T03:23:23.927Z,64.54
2022-08-03T03:24:22.484Z,64.42
2022-08-03T03:25:23.127Z,64.15
2022-08-03T03:26:22.294Z,64.09
2022-08-03T03:27:22.886Z,63.90
2022-08-03T03:28:22.863Z,63.61
2022-08-03T03:29:22.672Z,63.53
2022-08-03T03:30:22.326Z,62.90
2022-08-03T03:31:22.763Z,62.81
2022-08-03T03:32:22.553Z,62.60
2022-08-03T03:33:23.136Z,62.50
2022-08-03T03:34:23.600Z,62.24
2022-08-03T03:35:22.616Z,61.98
2022-08-03T03:36:22.233Z,61.83
2022-08-03T03:37:22.185Z,62.05
2022-08-03T03:38:22.296Z,61.77
2022-08-03T03:39:22.280Z,61.72
2022-08-03T03:40:22.841Z,61.85
2022-08-03T03:41:22.278Z,62.14
2022-08-03T03:42:22.864Z,62.39
2022-08-03T03:44:22.337Z,62.56
2022-08-03T03:45:24.054Z,62.56
2022-08-03T03:46:22.261Z,62.56
2022-08-03T03:47:32.422Z,62.64
2022-08-03T03:48:22.399Z,62.76
2022-08-03T03:49:22.563Z,62.87
2022-08-03T03:50:24.495Z,63.05
2022-08-03T03:51:22.263Z,63.11
2022-08-03T03:52:22.149Z,63.23
2022-08-03T03:53:22.181Z,63.35
2022-08-03T03:54:25.551Z,63.32
2022-08-03T03:55:22.168Z,63.46
2022-08-03T03:56:22.272Z,63.56
2022-08-03T03:58:22.376Z,63.92
2022-08-03T04:00:22.321Z,64.36
2022-08-03T04:02:22.423Z,64.76
2022-08-03T04:03:22.212Z,64.91
2022-08-03T04:04:31.513Z,65.10
2022-08-03T04:05:31.582Z,65.28
2022-08-03T04:07:32.766Z,65.39
2022-08-03T04:08:32.230Z,65.71
2022-08-03T04:09:31.587Z,65.88
2022-08-03T04:11:30.242Z,66.31
2022-08-03T04:12:26.068Z,66.34
2022-08-03T04:13:23.638Z,66.49
2022-08-03T04:14:25.796Z,66.63
2022-08-03T04:15:24.635Z,66.66
2022-08-03T04:16:25.851Z,66.64
2022-08-03T04:17:24.432Z,66.73
2022-08-03T04:18:22.878Z,66.75
2022-08-03T04:19:31.415Z,66.78
2022-08-03T04:20:23.501Z,66.73
2022-08-03T04:21:23.657Z,66.80
2022-08-03T04:22:30.927Z,67.01
2022-08-03T04:23:25.911Z,67.06
2022-08-03T04:30:23.722Z,67.16
2022-08-03T04:33:23.593Z,67.20
2022-08-03T04:35:24.047Z,67.42
2022-08-03T04:36:25.613Z,67.48
2022-08-03T04:37:33.739Z,67.52
2022-08-03T04:38:24.295Z,67.52
2022-08-03T04:40:32.816Z,67.44
2022-08-03T04:44:28.451Z,66.93
2022-08-03T04:46:26.298Z,66.58
2022-08-03T04:49:24.101Z,66.21
2022-08-03T04:52:22.562Z,66.10
2022-08-03T04:53:22.643Z,65.91
2022-08-03T04:54:22.110Z,65.88
2022-08-03T04:55:29.015Z,65.75
2022-08-03T04:56:22.106Z,65.73
2022-08-03T04:57:23.591Z,65.69
2022-08-03T04:58:22.133Z,65.54
2022-08-03T04:59:22.138Z,65.48
2022-08-03T05:00:22.611Z,65.54
2022-08-03T05:01:23.122Z,65.65
2022-08-03T05:02:22.585Z,65.63
2022-08-03T05:04:23.180Z,65.81
2022-08-03T05:05:22.725Z,65.88
2022-08-03T05:06:22.121Z,65.95
2022-08-03T05:07:24.799Z,66.03
2022-08-03T05:08:27.845Z,66.10
2022-08-03T05:09:26.017Z,66.22
2022-08-03T05:10:22.127Z,66.35
2022-08-03T05:11:22.140Z,66.48
2022-08-03T05:12:22.148Z,66.62
2022-08-03T05:13:22.049Z,66.71
2022-08-03T05:14:28.045Z,66.83
2022-08-03T05:15:22.183Z,66.95
2022-08-03T05:16:22.250Z,67.06
2022-08-03T05:17:22.121Z,67.20
2022-08-03T05:18:22.260Z,67.33
2022-08-03T05:19:22.083Z,67.50
2022-08-03T05:20:22.277Z,67.62
2022-08-03T05:21:22.114Z,67.78
2022-08-03T05:22:23.277Z,67.94
2022-08-03T05:23:22.104Z,68.12
2022-08-03T05:24:22.137Z,68.27
2022-08-03T05:25:27.102Z,68.46
2022-08-03T05:26:22.142Z,68.55
2022-08-03T05:27:22.129Z,68.66
2022-08-03T05:28:22.077Z,68.80
2022-08-03T05:29:22.489Z,68.85
2022-08-03T05:30:26.759Z,68.94
2022-08-03T05:31:22.059Z,69.06
2022-08-03T05:32:22.442Z,69.14
2022-08-03T05:33:22.069Z,69.26
2022-08-03T05:34:22.236Z,69.26
2022-08-03T05:36:00.685Z,69.31
2022-08-03T05:36:22.071Z,69.36
2022-08-03T05:37:22.117Z,69.42
2022-08-03T05:38:28.088Z,69.49
2022-08-03T05:39:22.073Z,69.57
2022-08-03T05:40:22.221Z,69.63
2022-08-03T05:41:36.550Z,69.67
2022-08-03T05:42:22.151Z,69.75
2022-08-03T05:43:22.757Z,69.82
2022-08-03T05:44:25.571Z,69.89
2022-08-03T05:45:25.410Z,69.93
2022-08-03T05:46:23.070Z,69.99
2022-08-03T05:47:22.130Z,70.06
2022-08-03T05:48:22.083Z,70.16
2022-08-03T05:49:22.214Z,70.19
2022-08-03T05:50:22.767Z,70.25
2022-08-03T05:51:22.159Z,70.29
2022-08-03T05:52:22.199Z,70.37
2022-08-03T05:53:22.093Z,70.48
2022-08-03T05:54:22.080Z,70.54
2022-08-03T05:55:22.044Z,70.64
2022-08-03T05:58:22.230Z,70.79
2022-08-03T05:59:36.968Z,70.83
2022-08-03T06:02:22.071Z,70.84
2022-08-03T06:03:22.188Z,70.83
2022-08-03T06:04:22.213Z,70.81
2022-08-03T06:07:22.937Z,70.83
2022-08-03T06:08:22.054Z,70.88
2022-08-03T06:10:37.320Z,70.97
2022-08-03T06:13:23.211Z,70.96
2022-08-03T06:14:22.112Z,70.99
2022-08-03T06:15:22.199Z,71.03
2022-08-03T06:16:22.114Z,71.04
2022-08-03T06:17:22.063Z,71.02
2022-08-03T06:18:22.054Z,71.07
2022-08-03T06:19:23.285Z,71.08
2022-08-03T06:20:22.403Z,71.15
2022-08-03T06:21:23.709Z,71.20
2022-08-03T06:22:22.156Z,71.31
2022-08-03T06:23:22.481Z,71.34
2022-08-03T06:24:22.115Z,71.37
2022-08-03T06:25:22.168Z,71.44
2022-08-03T06:26:22.113Z,71.50
2022-08-03T06:27:36.392Z,71.52
2022-08-03T06:28:53.119Z,71.57
2022-08-03T06:29:22.101Z,71.70
2022-08-03T06:30:22.187Z,71.77
2022-08-03T06:31:25.836Z,71.83
2022-08-03T06:32:22.931Z,71.87
2022-08-03T06:33:22.111Z,71.96
2022-08-03T06:34:32.770Z,72.08
2022-08-03T06:35:22.131Z,72.16
2022-08-03T06:36:22.072Z,72.25
2022-08-03T06:37:22.065Z,72.30
2022-08-03T06:38:22.281Z,72.42
2022-08-03T06:39:23.236Z,72.52
2022-08-03T06:40:32.310Z,72.60
2022-08-03T06:41:22.087Z,72.65
2022-08-03T06:42:22.610Z,72.72
2022-08-03T06:43:22.035Z,72.78
2022-08-03T06:44:22.114Z,72.84
2022-08-03T06:45:22.136Z,72.89
2022-08-03T06:46:22.452Z,72.99
2022-08-03T06:47:22.052Z,73.02
2022-08-03T06:48:22.052Z,73.10
2022-08-03T06:49:22.104Z,73.18
2022-08-03T06:50:26.013Z,73.23
2022-08-03T06:52:37.948Z,73.31
2022-08-03T06:53:22.012Z,73.37
2022-08-03T06:55:22.136Z,73.43
2022-08-03T06:56:22.087Z,73.44
2022-08-03T06:57:22.461Z,73.44
2022-08-03T06:58:22.043Z,73.49
2022-08-03T07:00:08.952Z,73.55
2022-08-03T07:01:22.206Z,73.67
2022-08-03T07:02:22.057Z,73.68
2022-08-03T07:03:22.308Z,73.73
2022-08-03T07:04:21.998Z,73.82
2022-08-03T07:05:23.076Z,73.86
2022-08-03T07:06:22.044Z,73.93
2022-08-03T07:07:22.039Z,74.06
2022-08-03T07:08:33.830Z,74.04
2022-08-03T07:09:22.610Z,73.94
2022-08-03T07:11:22.248Z,73.87
2022-08-03T07:12:22.063Z,73.96
2022-08-03T07:13:22.013Z,73.92
2022-08-03T07:14:22.310Z,73.92
2022-08-03T07:15:54.327Z,74.00
2022-08-03T07:16:22.023Z,74.02
2022-08-03T07:17:22.050Z,74.06
2022-08-03T07:18:27.598Z,74.03
2022-08-03T07:19:22.040Z,74.14
2022-08-03T07:20:21.977Z,74.15
2022-08-03T07:21:22.028Z,74.16
2022-08-03T07:22:25.937Z,74.27
2022-08-03T07:23:22.035Z,74.37
2022-08-03T07:25:22.384Z,74.50
2022-08-03T07:26:22.012Z,74.46
2022-08-03T07:27:22.586Z,74.44
2022-08-03T07:28:22.259Z,74.48
2022-08-03T07:29:22.136Z,74.45
2022-08-03T07:30:22.135Z,74.47
2022-08-03T07:31:22.017Z,74.45
2022-08-03T07:32:22.074Z,74.46
2022-08-03T07:33:29.265Z,74.46
2022-08-03T07:34:22.106Z,74.50
2022-08-03T07:35:32.830Z,74.54
2022-08-03T07:36:22.310Z,74.58
2022-08-03T07:37:30.783Z,74.59
2022-08-03T07:38:21.997Z,74.58
2022-08-03T07:39:30.456Z,74.59
2022-08-03T07:40:22.459Z,74.67
2022-08-03T07:41:22.405Z,74.72
2022-08-03T07:42:31.218Z,74.77
2022-08-03T07:43:22.014Z,74.86
2022-08-03T07:44:22.394Z,74.89
2022-08-03T07:45:31.535Z,74.88
2022-08-03T07:46:22.043Z,74.90
2022-08-03T07:48:21.988Z,74.87
2022-08-03T07:51:22.071Z,74.88
2022-08-03T07:54:33.617Z,74.81
2022-08-03T07:55:24.328Z,74.68
2022-08-03T07:57:22.059Z,74.60
2022-08-03T07:58:29.265Z,74.58
2022-08-03T07:59:25.137Z,74.57
2022-08-03T08:00:21.997Z,74.58
2022-08-03T08:01:22.691Z,74.58
2022-08-03T08:02:22.388Z,74.54
2022-08-03T08:03:22.337Z,74.50
2022-08-03T08:04:21.952Z,74.42
2022-08-03T08:05:22.102Z,74.27
2022-08-03T08:06:22.389Z,74.12
2022-08-03T08:07:22.268Z,73.88
2022-08-03T08:08:29.654Z,73.84
2022-08-03T08:10:22.521Z,73.60
2022-08-03T08:11:22.557Z,73.46
2022-08-03T08:12:22.338Z,73.33
2022-08-03T08:13:33.489Z,73.34
2022-08-03T08:14:22.035Z,73.29
2022-08-03T08:15:23.110Z,73.20
2022-08-03T08:16:21.947Z,73.09
2022-08-03T08:17:22.385Z,72.92
2022-08-03T08:18:22.147Z,72.86
2022-08-03T08:19:26.517Z,72.79
2022-08-03T08:20:38.072Z,72.70
2022-08-03T08:21:22.070Z,72.59
2022-08-03T08:22:29.801Z,72.43
2022-08-03T08:23:42.245Z,72.34
2022-08-03T08:24:21.924Z,72.22
2022-08-03T08:25:29.411Z,72.07
2022-08-03T08:26:26.393Z,71.94
2022-08-03T08:27:22.149Z,71.76
2022-08-03T08:28:32.883Z,71.53
2022-08-03T08:29:23.335Z,71.39
2022-08-03T08:30:24.109Z,71.11
2022-08-03T08:31:22.063Z,70.90
2022-08-03T08:32:21.935Z,70.87
2022-08-03T08:34:21.998Z,70.48
2022-08-03T08:36:22.287Z,69.85
2022-08-03T08:37:33.201Z,69.62
2022-08-03T08:38:22.440Z,69.43
2022-08-03T08:39:26.542Z,69.15
2022-08-03T08:40:23.766Z,68.63
2022-08-03T08:41:21.951Z,68.34
2022-08-03T08:42:21.962Z,67.99
2022-08-03T08:43:22.085Z,67.80
2022-08-03T08:44:37.878Z,67.77
2022-08-03T08:45:22.040Z,67.74
2022-08-03T08:46:36.435Z,67.64
2022-08-03T08:48:27.251Z,67.45
2022-08-03T08:51:24.148Z,67.13
2022-08-03T08:54:24.009Z,67.01
2022-08-03T08:56:26.181Z,66.92
2022-08-03T08:57:40.767Z,66.84
2022-08-03T08:58:24.973Z,66.83
2022-08-03T09:04:22.209Z,66.68
2022-08-03T09:05:36.244Z,66.63
2022-08-03T09:06:22.846Z,66.62
2022-08-03T09:07:22.191Z,66.61
2022-08-03T09:08:23.299Z,66.58
2022-08-03T09:10:11.013Z,66.60
2022-08-03T09:10:22.214Z,66.64
2022-08-03T09:12:00.463Z,66.67
2022-08-03T09:12:41.182Z,66.76
2022-08-03T09:13:23.393Z,67.07
2022-08-03T09:14:39.401Z,67.23
2022-08-03T09:15:25.727Z,67.24
2022-08-03T09:16:23.247Z,67.27
2022-08-03T09:17:22.360Z,67.30
2022-08-03T09:18:32.891Z,67.37
2022-08-03T09:19:21.941Z,67.35
2022-08-03T09:20:24.196Z,67.39
2022-08-03T09:21:32.099Z,67.33
2022-08-03T09:22:22.212Z,67.36
2022-08-03T09:23:51.532Z,67.31
2022-08-03T09:24:40.794Z,67.43
2022-08-03T09:25:31.948Z,67.59
2022-08-03T09:26:23.691Z,67.69
2022-08-03T09:27:26.114Z,67.88
2022-08-03T09:28:52.677Z,68.03
2022-08-03T09:29:23.170Z,68.18
2022-08-03T09:31:29.750Z,68.33
2022-08-03T09:32:23.348Z,68.37
2022-08-03T09:33:22.171Z,68.46
2022-08-03T09:34:28.629Z,68.45
2022-08-03T09:35:51.624Z,68.49
2022-08-03T09:36:42.489Z,68.48
2022-08-03T09:38:04.757Z,68.51
2022-08-03T09:38:26.125Z,68.49
2022-08-03T09:39:41.749Z,68.45
2022-08-03T09:40:39.314Z,68.47
2022-08-03T09:41:21.916Z,68.42
2022-08-03T09:43:22.748Z,68.42
2022-08-03T09:46:21.956Z,68.40
2022-08-03T09:48:23.987Z,68.43
2022-08-03T09:49:22.141Z,68.45
2022-08-03T09:52:31.254Z,68.55
2022-08-03T09:52:38.345Z,68.59
2022-08-03T09:53:22.572Z,68.63
2022-08-03T09:54:28.809Z,68.71
2022-08-03T09:56:30.565Z,68.82
2022-08-03T09:56:33.319Z,68.99
2022-08-03T09:57:23.717Z,69.06
2022-08-03T09:58:23.491Z,69.14
2022-08-03T09:59:27.728Z,69.21
2022-08-03T10:00:22.324Z,69.31
2022-08-03T10:01:31.274Z,69.37
2022-08-03T10:02:26.211Z,69.49
2022-08-03T10:03:22.264Z,69.59
2022-08-03T10:04:23.117Z,69.67
2022-08-03T10:05:34.049Z,69.73
2022-08-03T10:06:23.248Z,69.71
2022-08-03T10:07:23.897Z,69.69
2022-08-03T10:08:22.658Z,69.72
2022-08-03T10:09:21.897Z,69.81
2022-08-03T10:10:30.318Z,69.88
2022-08-03T10:11:31.456Z,69.95
2022-08-03T10:12:22.572Z,70.04
2022-08-03T10:13:25.658Z,70.19
2022-08-03T10:16:22.184Z,70.47
2022-08-03T10:16:25.499Z,70.58
2022-08-03T10:18:21.968Z,70.79
2022-08-03T10:19:21.947Z,70.85
2022-08-03T10:20:22.032Z,70.89
2022-08-03T10:21:22.853Z,70.89
2022-08-03T10:22:24.284Z,70.87
2022-08-03T10:24:28.727Z,70.88
2022-08-03T10:25:22.542Z,70.90
2022-08-03T10:27:24.735Z,70.84
2022-08-03T10:29:25.427Z,70.81
2022-08-03T10:30:26.258Z,70.83
2022-08-03T10:31:24.281Z,70.76
2022-08-03T10:32:34.542Z,70.71
2022-08-03T10:34:26.106Z,70.68
2022-08-03T10:35:23.561Z,70.64
2022-08-03T10:36:25.045Z,70.61
2022-08-03T10:37:26.186Z,70.64
2022-08-03T10:38:26.601Z,70.60
2022-08-03T10:39:24.603Z,70.64
2022-08-03T10:43:26.790Z,70.72
2022-08-03T10:44:25.057Z,70.73
2022-08-03T10:45:24.866Z,70.78
2022-08-03T10:46:22.613Z,70.86
2022-08-03T10:47:22.199Z,70.90
2022-08-03T10:48:22.908Z,70.90
2022-08-03T10:49:34.322Z,70.89
2022-08-03T10:50:25.742Z,70.94
2022-08-03T10:51:23.631Z,71.04
2022-08-03T10:52:31.802Z,71.14
2022-08-03T10:53:40.411Z,71.24
2022-08-03T10:54:49.429Z,71.32
2022-08-03T10:55:42.834Z,71.42
2022-08-03T10:56:48.047Z,71.46
2022-08-03T10:57:39.957Z,71.53
2022-08-03T10:58:53.440Z,71.64
2022-08-03T10:59:40.990Z,71.69
2022-08-03T11:00:23.538Z,71.74
2022-08-03T11:01:59.285Z,71.77
2022-08-03T11:02:21.990Z,71.77
2022-08-03T11:03:21.878Z,71.77
2022-08-03T11:04:24.431Z,71.81
2022-08-03T11:05:30.256Z,71.82
2022-08-03T11:06:24.784Z,71.85
2022-08-03T11:07:23.899Z,71.90
2022-08-03T11:08:29.469Z,72.02
2022-08-03T11:09:21.949Z,72.09
2022-08-03T11:10:32.065Z,72.25
2022-08-03T11:11:28.776Z,72.33
2022-08-03T11:12:31.509Z,72.42
2022-08-03T11:13:23.976Z,72.52
2022-08-03T11:14:23.973Z,72.59
2022-08-03T11:15:33.538Z,72.60
2022-08-03T11:16:23.567Z,72.61
2022-08-03T11:17:23.504Z,72.65
2022-08-03T11:18:22.102Z,72.73
2022-08-03T11:19:27.584Z,72.79
2022-08-03T11:20:39.992Z,72.85
2022-08-03T11:21:22.055Z,72.92
2022-08-03T11:22:22.713Z,73.01
2022-08-03T11:24:04.514Z,73.10
2022-08-03T11:24:39.637Z,73.20
2022-08-03T11:25:55.069Z,73.27
2022-08-03T11:26:22.774Z,73.32
2022-08-03T11:27:23.415Z,73.37
2022-08-03T11:28:30.672Z,73.42
2022-08-03T11:29:31.199Z,73.54
2022-08-03T11:30:27.673Z,73.66
2022-08-03T11:31:49.453Z,73.77
2022-08-03T11:32:46.582Z,73.78
2022-08-03T11:33:31.282Z,73.82
2022-08-03T11:34:21.973Z,73.92
2022-08-03T11:35:26.143Z,73.96
2022-08-03T11:36:32.500Z,74.02
2022-08-03T11:37:27.246Z,74.05
2022-08-03T11:38:24.704Z,74.04
2022-08-03T11:39:21.840Z,74.05
2022-08-03T11:40:40.039Z,74.05
2022-08-03T11:41:43.379Z,74.01
2022-08-03T11:42:30.646Z,74.00
2022-08-03T11:43:31.996Z,74.03
2022-08-03T11:44:39.936Z,74.10
2022-08-03T11:45:21.827Z,74.13
2022-08-03T11:46:29.790Z,74.13
2022-08-03T11:47:23.231Z,74.08
2022-08-03T11:48:21.887Z,74.07
2022-08-03T11:49:24.035Z,74.05
2022-08-03T11:50:22.702Z,74.05
2022-08-03T11:51:24.009Z,74.11
2022-08-03T11:52:27.102Z,74.23
2022-08-03T11:53:22.034Z,74.28
2022-08-03T11:54:22.923Z,74.30
2022-08-03T11:55:22.407Z,74.35
2022-08-03T11:56:21.963Z,74.48
2022-08-03T11:59:09.311Z,74.60
2022-08-03T11:59:16.370Z,74.63
2022-08-03T12:00:25.870Z,74.67
2022-08-03T12:01:24.303Z,74.66
2022-08-03T12:02:21.792Z,74.64
2022-08-03T12:03:23.035Z,74.65
2022-08-03T12:04:25.967Z,74.60
2022-08-03T12:05:21.945Z,74.55
2022-08-03T12:06:22.233Z,74.49
2022-08-03T12:08:02.675Z,74.50
2022-08-03T12:08:33.166Z,74.53
2022-08-03T12:09:22.546Z,74.58
2022-08-03T12:10:21.763Z,74.63
2022-08-03T12:11:21.844Z,74.62
2022-08-03T12:12:22.263Z,74.64
2022-08-03T12:14:37.326Z,74.63
2022-08-03T12:14:49.770Z,74.59
2022-08-03T12:15:30.565Z,74.64
2022-08-03T12:16:23.496Z,74.65
2022-08-03T12:17:22.159Z,74.70
2022-08-03T12:22:33.449Z,74.92
2022-08-03T12:23:21.863Z,74.93
2022-08-03T12:24:21.833Z,74.93
2022-08-03T12:25:38.623Z,74.95
2022-08-03T12:26:21.908Z,74.99
2022-08-03T12:27:27.862Z,74.95
2022-08-03T12:28:37.490Z,74.97
2022-08-03T12:29:23.244Z,74.99
2022-08-03T12:30:23.908Z,75.01
2022-08-03T12:31:22.042Z,75.05
2022-08-03T12:32:21.813Z,75.11
2022-08-03T12:33:24.978Z,75.17
2022-08-03T12:34:21.782Z,75.18
2022-08-03T12:35:25.659Z,75.15
2022-08-03T12:36:21.821Z,75.11
2022-08-03T12:37:23.670Z,75.15
2022-08-03T12:38:23.052Z,75.27
2022-08-03T12:39:25.814Z,75.37
2022-08-03T12:40:28.307Z,75.44
2022-08-03T12:41:29.553Z,75.46
2022-08-03T12:42:30.848Z,75.49
2022-08-03T12:46:22.168Z,75.55
2022-08-03T12:47:21.818Z,75.52
2022-08-03T12:51:21.770Z,75.62
2022-08-03T12:53:30.512Z,75.68
2022-08-03T12:56:23.185Z,75.59
2022-08-03T12:57:22.123Z,75.56
2022-08-03T12:58:34.543Z,75.63
2022-08-03T12:59:35.083Z,75.70
2022-08-03T13:00:28.777Z,75.77
2022-08-03T13:03:39.664Z,75.95
2022-08-03T13:07:22.905Z,75.97
2022-08-03T13:08:23.673Z,75.92
2022-08-03T13:09:21.758Z,75.96
2022-08-03T13:10:32.486Z,76.01
2022-08-03T13:12:25.089Z,76.12
2022-08-03T13:13:39.934Z,76.19
2022-08-03T13:14:23.794Z,76.25
2022-08-03T13:15:21.794Z,76.27
2022-08-03T13:16:22.316Z,76.25
2022-08-03T13:17:22.015Z,76.23
2022-08-03T13:18:21.761Z,76.22
2022-08-03T13:19:21.740Z,76.20
2022-08-03T13:20:22.523Z,76.15
2022-08-03T13:21:22.430Z,76.10
2022-08-03T13:22:25.042Z,76.07
2022-08-03T13:23:22.584Z,76.05
2022-08-03T13:24:21.867Z,76.01
2022-08-03T13:25:21.868Z,75.97
2022-08-03T13:26:21.734Z,75.90
2022-08-03T13:28:01.404Z,75.84
2022-08-03T13:28:21.823Z,75.79
2022-08-03T13:29:21.851Z,75.74
2022-08-03T13:30:29.893Z,75.68
2022-08-03T13:32:22.060Z,75.63
2022-08-03T13:33:21.786Z,75.60
2022-08-03T13:34:23.918Z,75.56
2022-08-03T13:35:21.778Z,75.51
2022-08-03T13:36:21.697Z,75.48
2022-08-03T13:37:22.012Z,75.44
2022-08-03T13:38:22.066Z,75.40
2022-08-03T13:39:21.886Z,75.32
2022-08-03T13:40:30.380Z,75.24
2022-08-03T13:41:22.315Z,75.12
2022-08-03T13:42:21.723Z,75.03
2022-08-03T13:43:22.511Z,74.96
2022-08-03T13:44:29.825Z,74.90
2022-08-03T13:45:21.771Z,74.84
2022-08-03T13:46:21.762Z,74.75
2022-08-03T13:47:22.299Z,74.68
2022-08-03T13:48:36.796Z,74.62
2022-08-03T13:49:22.434Z,74.60
2022-08-03T13:50:21.768Z,74.53
2022-08-03T13:51:22.893Z,74.45
2022-08-03T13:52:21.801Z,74.36
2022-08-03T13:53:21.763Z,74.31
2022-08-03T13:54:21.809Z,74.25
2022-08-03T13:55:21.714Z,74.20
2022-08-03T13:56:21.859Z,74.19
2022-08-03T13:58:04.605Z,74.17
2022-08-03T13:58:21.871Z,74.13
2022-08-03T13:59:22.851Z,74.08
2022-08-03T14:00:28.903Z,74.03
2022-08-03T14:01:53.466Z,73.94
2022-08-03T14:02:21.751Z,73.91
2022-08-03T14:04:25.084Z,73.88
2022-08-03T14:10:22.085Z,73.81
2022-08-03T14:12:21.693Z,73.76
2022-08-03T14:14:21.765Z,73.76
2022-08-03T14:15:22.641Z,73.79
2022-08-03T14:17:23.260Z,73.76
2022-08-03T14:18:29.012Z,73.74
2022-08-03T14:20:38.513Z,73.70
2022-08-03T14:23:21.848Z,73.66
2022-08-03T14:25:24.816Z,73.65
2022-08-03T14:32:21.970Z,73.72
2022-08-03T14:33:21.986Z,73.74
2022-08-03T14:34:21.705Z,73.78
2022-08-03T14:35:21.674Z,73.80
2022-08-03T14:36:27.225Z,73.80
2022-08-03T14:37:27.905Z,73.82
2022-08-03T14:38:22.196Z,73.79
2022-08-03T14:39:23.697Z,73.77
2022-08-03T14:40:27.993Z,73.66
2022-08-03T14:41:21.710Z,73.60
2022-08-03T14:42:21.734Z,73.51
2022-08-03T14:43:25.683Z,73.43
2022-08-03T14:47:22.041Z,73.37
2022-08-03T14:50:38.414Z,73.37
2022-08-03T14:55:22.055Z,73.35
2022-08-03T14:59:28.762Z,73.30
2022-08-03T15:00:21.924Z,73.31
2022-08-03T15:02:02.999Z,73.30
2022-08-03T15:07:22.366Z,73.36
2022-08-03T15:08:23.018Z,73.30
2022-08-03T15:09:23.849Z,73.24
2022-08-03T15:10:21.762Z,73.13
2022-08-03T15:11:21.708Z,73.10
2022-08-03T15:12:21.665Z,73.04
2022-08-03T15:13:27.843Z,72.91
2022-08-03T15:14:28.324Z,72.79
2022-08-03T15:15:22.004Z,72.72
2022-08-03T15:16:21.660Z,72.64
2022-08-03T15:17:22.123Z,72.61
2022-08-03T15:18:21.747Z,72.56
2022-08-03T15:20:02.416Z,72.49